Time;durP1;ratioP1;P1;durP2;ratioP2;P2;SDS_P1;SDS_P2;PMS_P1;PMS_P2;Temp;Humidity;BMP_temperature;BMP_pressure;BME280_temperature;BME280_humidity;BME280_pressure;Samples;Min_cycle;Max_cycle;Signal;HPM_P1;HPM_P2
2022/12/10 00:01:52;;;;;;;26.57;13.13;;;;;;;42.43;35.05;101071.69;5072298;28;20512;-74
2022/12/10 00:04:20;;;;;;;28.00;15.20;;;;;;;42.32;35.10;101074.81;5072448;28;20461;-74
2022/12/10 00:06:46;;;;;;;28.47;15.93;;;;;;;42.14;35.41;101065.91;5072172;28;20432;-73
2022/12/10 00:09:17;;;;;;;23.77;15.00;;;;;;;42.21;35.22;101065.41;5074786;28;20486;-74
2022/12/10 00:11:43;;;;;;;18.93;13.23;;;;;;;42.31;35.06;101067.75;5072151;28;20417;-74
2022/12/10 00:14:12;;;;;;;22.10;13.60;;;;;;;42.21;35.24;101064.63;5072021;28;20465;-74
2022/12/10 00:16:38;;;;;;;27.17;13.40;;;;;;;42.26;35.13;101057.03;5072088;28;21074;-74
2022/12/10 00:19:04;;;;;;;26.37;15.20;;;;;;;42.32;35.15;101054.91;5072071;28;20421;-73
2022/12/10 00:21:33;;;;;;;20.50;13.40;;;;;;;42.34;35.09;101056.19;5072048;28;20450;-73
2022/12/10 00:24:00;;;;;;;26.57;15.57;;;;;;;42.01;35.55;101052.53;5071897;28;20998;-74
2022/12/10 00:26:39;;;;;;;23.43;13.80;;;;;;;41.87;35.95;101047.34;5073496;28;20544;-74
2022/12/10 00:29:09;;;;;;;34.57;16.40;;;;;;;42.25;35.03;101041.03;5071880;28;20452;-74
2022/12/10 00:31:37;;;;;;;22.13;13.80;;;;;;;42.27;35.03;101039.56;5071695;28;20456;-75
2022/12/10 00:34:05;;;;;;;25.97;14.03;;;;;;;42.24;35.04;101031.25;5071786;28;20421;-75
2022/12/10 00:36:34;;;;;;;27.30;14.07;;;;;;;42.33;35.11;101031.97;5071546;28;20440;-73
2022/12/10 00:39:01;;;;;;;25.87;13.37;;;;;;;42.33;35.00;101026.53;5071342;28;20498;-73
2022/12/10 00:41:27;;;;;;;20.00;13.23;;;;;;;42.22;35.18;101028.06;5071877;28;20421;-73
2022/12/10 00:43:53;;;;;;;22.10;15.50;;;;;;;42.16;35.26;101018.44;5071786;28;20458;-73
2022/12/10 00:46:19;;;;;;;21.10;12.43;;;;;;;42.13;35.47;101025.38;5071815;28;20414;-73
2022/12/10 00:48:45;;;;;;;20.30;13.27;;;;;;;42.27;35.13;101020.47;5071630;28;20505;-73
2022/12/10 00:51:16;;;;;;;28.37;16.23;;;;;;;42.24;35.03;101021.16;5071536;28;20406;-73
2022/12/10 00:53:43;;;;;;;35.30;15.27;;;;;;;42.06;35.30;101023.19;5071685;28;20406;-72
2022/12/10 00:56:12;;;;;;;25.33;13.67;;;;;;;42.27;35.01;101019.69;5071637;28;20452;-73
2022/12/10 00:58:39;;;;;;;20.00;13.03;;;;;;;42.32;35.11;101016.75;5071493;28;20855;-73
2022/12/10 01:01:27;;;;;;;23.97;14.00;;;;;;;41.97;35.56;101016.16;5071717;28;20858;-73
2022/12/10 01:03:56;;;;;;;28.30;13.57;;;;;;;41.91;35.60;101010.13;5071471;28;20844;-73
2022/12/10 01:06:25;;;;;;;23.90;13.80;;;;;;;41.71;35.81;101010.84;5071452;28;20422;-73
2022/12/10 01:08:53;;;;;;;25.20;13.77;;;;;;;41.83;35.28;101010.97;5071553;28;20417;-73
2022/12/10 01:11:20;;;;;;;19.73;12.60;;;;;;;41.84;35.44;100999.75;5071219;28;20421;-73
2022/12/10 01:13:47;;;;;;;21.20;13.13;;;;;;;42.02;35.39;100997.69;5082249;28;20448;-72
2022/12/10 01:16:16;;;;;;;22.93;14.97;;;;;;;42.21;35.15;100996.47;5074681;28;20412;-72
2022/12/10 01:18:43;;;;;;;26.23;13.60;;;;;;;42.00;35.72;100994.53;5074624;28;20416;-73
2022/12/10 01:21:12;;;;;;;31.73;14.37;;;;;;;42.11;35.35;100986.72;5074831;28;20412;-72
2022/12/10 01:23:40;;;;;;;21.87;14.40;;;;;;;42.03;35.43;100987.59;5074316;28;20539;-74
2022/12/10 01:26:11;;;;;;;27.30;15.47;;;;;;;41.72;36.00;100988.72;5074463;28;20474;-73
2022/12/10 01:28:39;;;;;;;24.47;14.27;;;;;;;41.81;35.78;100984.06;5074452;28;20423;-74
2022/12/10 01:31:11;;;;;;;22.80;14.80;;;;;;;42.09;35.58;100978.09;5074338;28;20409;-74
2022/12/10 01:33:39;;;;;;;28.03;12.90;;;;;;;42.25;35.03;100978.31;5074460;28;20432;-75
2022/12/10 01:36:13;;;;;;;22.60;13.53;;;;;;;42.04;35.48;100970.13;5074504;28;20454;-73
2022/12/10 01:38:39;;;;;;;17.87;14.80;;;;;;;41.89;35.52;100960.63;5074131;28;20796;-74
2022/12/10 01:41:07;;;;;;;22.83;13.13;;;;;;;41.82;35.77;100973.97;5074362;28;20945;-74
2022/12/10 01:43:53;;;;;;;28.53;14.80;;;;;;;41.76;36.07;100978.03;5074135;28;20460;-72
2022/12/10 01:46:20;;;;;;;19.37;14.80;;;;;;;41.76;35.79;100978.81;5073667;28;20420;-72
2022/12/10 01:48:46;;;;;;;19.00;14.30;;;;;;;41.84;35.61;100972.50;5074062;28;20473;-72
2022/12/10 01:51:14;;;;;;;22.70;13.57;;;;;;;41.81;35.62;100981.34;5077798;28;20413;-72
2022/12/10 01:53:41;;;;;;;25.73;13.93;;;;;;;41.85;35.56;100968.63;5078097;28;20420;-72
2022/12/10 01:56:10;;;;;;;24.67;14.57;;;;;;;41.74;35.85;100963.88;5078099;28;20439;-75
2022/12/10 01:58:36;;;;;;;22.80;14.23;;;;;;;41.79;35.80;100959.06;5096723;28;20426;-74
2022/12/10 02:01:28;;;;;;;23.67;15.50;;;;;;;41.93;35.75;100960.72;5078111;28;20404;-74
2022/12/10 02:04:03;;;;;;;26.70;14.37;;;;;;;41.92;36.01;100961.88;5065024;28;20456;-72
2022/12/10 02:06:46;;;;;;;22.00;14.80;;;;;;;42.03;35.53;100957.63;5077964;28;20416;-73
2022/12/10 02:09:34;;;;;;;29.00;15.60;;;;;;;41.91;35.76;100957.56;5096239;28;20486;-73
2022/12/10 02:12:06;;;;;;;21.13;13.50;;;;;;;42.04;35.36;100953.75;5077900;28;20423;-72
2022/12/10 02:14:56;;;;;;;28.47;17.90;;;;;;;41.83;35.96;100951.03;5078430;28;21021;-72
2022/12/10 02:17:40;;;;;;;18.80;13.57;;;;;;;41.86;35.54;100948.44;5095077;28;20855;-74
2022/12/10 02:20:29;;;;;;;30.80;14.93;;;;;;;41.95;35.84;100944.88;5077604;28;20505;-74
2022/12/10 02:23:01;;;;;;;20.50;14.40;;;;;;;41.85;35.43;100944.13;5096170;28;20441;-74
2022/12/10 02:26:03;;;;;;;24.27;15.17;;;;;;;41.74;35.81;100953.84;5096025;28;20405;-73
2022/12/10 02:28:51;;;;;;;27.67;15.10;;;;;;;41.84;35.77;100949.91;5077467;28;20475;-73
2022/12/10 02:31:22;;;;;;;21.73;13.80;;;;;;;42.03;35.39;100949.44;5077370;28;20413;-73
2022/12/10 02:33:53;;;;;;;26.03;13.20;;;;;;;41.68;35.99;100938.78;5077366;28;20482;-72
2022/12/10 02:36:22;;;;;;;26.90;14.17;;;;;;;41.65;36.01;100942.16;5077326;28;20442;-73
2022/12/10 02:38:50;;;;;;;22.60;14.80;;;;;;;41.88;35.63;100942.69;5077336;28;20474;-73
2022/12/10 02:41:23;;;;;;;21.90;13.93;;;;;;;41.81;35.69;100945.94;5077346;28;20478;-72
2022/12/10 02:43:53;;;;;;;26.10;15.03;;;;;;;41.81;35.97;100945.94;5095460;28;20807;-72
2022/12/10 02:46:21;;;;;;;28.10;17.43;;;;;;;41.73;36.09;100944.00;5077208;28;20423;-72
2022/12/10 02:48:49;;;;;;;26.03;15.37;;;;;;;41.82;35.89;100941.28;5077081;28;20504;-73
2022/12/10 02:51:15;;;;;;;17.50;13.67;;;;;;;41.73;35.64;100937.78;5095530;28;20403;-73
2022/12/10 02:53:45;;;;;;;22.43;15.67;;;;;;;41.77;35.83;100936.81;5095720;28;20798;-73
2022/12/10 02:56:26;;;;;;;20.40;16.37;;;;;;;41.67;36.15;100937.16;5077181;28;20550;-73
2022/12/10 02:59:03;;;;;;;27.10;18.27;;;;;;;41.45;36.40;100941.00;5076798;28;20427;-72
2022/12/10 03:02:17;;;;;;;33.00;20.73;;;;;;;41.49;36.62;100946.56;5083018;28;20421;-73
2022/12/10 03:05:11;;;;;;;38.13;25.50;;;;;;;41.30;36.74;100949.69;5052535;28;20465;-74
2022/12/10 03:07:58;;;;;;;40.20;29.50;;;;;;;41.23;36.96;100943.97;5071005;28;20429;-73
2022/12/10 03:10:41;;;;;;;49.07;31.80;;;;;;;41.06;37.73;100945.63;5076414;28;20527;-72
2022/12/10 03:13:12;;;;;;;50.20;34.73;;;;;;;41.32;37.10;100945.56;5076536;28;20483;-75
2022/12/10 03:15:40;;;;;;;46.03;34.50;;;;;;;41.15;36.92;100953.75;5076392;28;20931;-74
2022/12/10 03:18:08;;;;;;;40.70;31.00;;;;;;;41.06;37.21;100945.63;5076322;28;20424;-73
2022/12/10 03:20:40;;;;;;;48.97;30.50;;;;;;;39.52;40.12;100950.69;5076210;28;20424;-72
2022/12/10 03:23:11;;;;;;;42.90;29.37;;;;;;;40.08;39.42;100953.72;5076277;28;20463;-72
2022/12/10 03:25:38;;;;;;;36.70;29.20;;;;;;;40.06;39.59;100945.09;5076123;28;20973;-73
2022/12/10 03:28:06;;;;;;;52.87;32.23;;;;;;;40.46;38.66;100943.81;5076299;28;20421;-72
2022/12/10 03:30:33;;;;;;;41.77;31.60;;;;;;;39.94;39.18;100945.69;5076138;28;20470;-72
2022/12/10 03:33:01;;;;;;;40.30;30.07;;;;;;;40.17;38.78;100947.19;5076200;28;20417;-73
2022/12/10 03:35:27;;;;;;;32.03;27.50;;;;;;;39.42;40.31;100954.50;5076071;28;20784;-73
2022/12/10 03:37:53;;;;;;;42.47;29.37;;;;;;;40.21;38.70;100941.91;5075814;28;20454;-72
2022/12/10 03:40:22;;;;;;;38.73;28.77;;;;;;;39.73;39.10;100946.31;5075907;28;20508;-73
2022/12/10 03:42:48;;;;;;;43.30;29.60;;;;;;;39.67;39.53;100936.72;5075713;28;20540;-73
2022/12/10 03:45:14;;;;;;;46.67;33.53;;;;;;;40.33;38.98;100943.97;5075930;28;20539;-73
2022/12/10 03:47:41;;;;;;;34.80;29.33;;;;;;;40.47;38.57;100950.88;5094050;28;20984;-72
2022/12/10 03:50:08;;;;;;;39.10;29.70;;;;;;;40.70;37.81;100942.50;5059538;28;20479;-73
2022/12/10 03:52:34;;;;;;;38.93;28.13;;;;;;;40.25;38.56;100956.44;5076218;28;20787;-73
2022/12/10 03:55:00;;;;;;;40.00;33.07;;;;;;;39.96;39.08;100952.44;5055561;28;20429;-73
2022/12/10 03:57:26;;;;;;;48.17;27.23;;;;;;;39.43;39.82;100944.44;5066410;28;20436;-72
2022/12/10 03:59:52;;;;;;;40.37;28.00;;;;;;;39.34;39.89;100954.47;5075561;28;20431;-73
2022/12/10 04:02:18;;;;;;;34.63;26.27;;;;;;;39.73;39.44;100949.03;5093829;28;20428;-73
2022/12/10 04:04:44;;;;;;;41.80;26.70;;;;;;;40.00;39.23;100955.28;5075684;28;20459;-73
2022/12/10 04:07:10;;;;;;;29.97;23.73;;;;;;;39.45;39.86;100955.78;5075637;28;20927;-73
2022/12/10 04:09:36;;;;;;;39.93;24.53;;;;;;;39.40;40.39;100947.78;5075314;28;20469;-73
2022/12/10 04:12:03;;;;;;;37.73;25.87;;;;;;;39.75;39.22;100954.94;5074625;28;20421;-73
2022/12/10 04:17:13;;;;;;;35.27;26.70;;;;;;;39.76;39.31;100950.31;5073015;28;20447;-74
2022/12/10 04:19:39;;;;;;;33.10;23.20;;;;;;;40.18;38.48;100956.94;5071895;28;20418;-72
2022/12/10 04:27:37;;;;;;;35.63;24.37;;;;;;;39.58;39.33;100965.72;5072879;28;20413;-73
2022/12/10 04:30:05;;;;;;;33.40;24.90;;;;;;;40.16;38.73;100961.88;5080814;28;20460;-72
2022/12/10 04:32:32;;;;;;;38.40;26.30;;;;;;;39.88;39.27;100968.69;5072918;28;20441;-73
2022/12/10 04:34:59;;;;;;;41.80;26.67;;;;;;;39.95;38.79;100974.44;5071609;28;20418;-73
2022/12/10 04:37:27;;;;;;;42.60;27.00;;;;;;;39.00;40.57;100979.50;5071365;28;20923;-73
2022/12/10 04:39:53;;;;;;;37.40;27.83;;;;;;;38.39;42.00;100979.06;5071324;28;20456;-72
2022/12/10 04:42:21;;;;;;;43.07;27.30;;;;;;;38.60;41.92;100982.06;5071366;28;20426;-73
2022/12/10 04:44:47;;;;;;;33.60;28.23;;;;;;;39.44;40.24;100978.63;5071148;28;20988;-72
2022/12/10 04:47:13;;;;;;;35.47;26.47;;;;;;;38.91;40.69;100977.53;5071418;28;20596;-74
2022/12/10 04:49:40;;;;;;;33.37;26.07;;;;;;;39.26;40.35;100982.38;5070970;28;20878;-74
2022/12/10 04:52:07;;;;;;;40.20;26.43;;;;;;;39.44;40.04;100984.03;5072750;28;20413;-72
2022/12/10 04:54:33;;;;;;;40.17;25.60;;;;;;;39.76;39.38;100985.59;5072577;28;20420;-72
2022/12/10 04:56:59;;;;;;;37.47;26.90;;;;;;;39.67;39.19;100991.03;5071196;28;20445;-72
2022/12/10 04:59:25;;;;;;;32.80;26.20;;;;;;;39.90;39.27;100993.63;5071147;28;20421;-72
2022/12/10 05:01:51;;;;;;;34.00;25.53;;;;;;;39.73;38.95;100992.47;5072699;28;20429;-73
2022/12/10 05:04:18;;;;;;;40.97;27.43;;;;;;;40.06;38.63;100992.09;5072366;28;20888;-73
2022/12/10 05:06:47;;;;;;;42.00;29.90;;;;;;;40.24;38.09;100999.13;5072718;28;20428;-72
2022/12/10 05:09:13;;;;;;;41.97;29.70;;;;;;;40.11;38.51;101002.81;5070838;28;20446;-73
2022/12/10 05:11:40;;;;;;;43.60;29.23;;;;;;;40.09;38.55;101006.97;5070985;28;20424;-73
2022/12/10 05:14:08;;;;;;;34.20;25.40;;;;;;;39.95;38.46;101007.84;5070954;28;20469;-74
2022/12/10 05:16:34;;;;;;;40.80;28.30;;;;;;;39.84;38.95;101005.75;5072365;28;20500;-73
2022/12/10 05:19:00;;;;;;;38.17;30.83;;;;;;;40.01;38.71;101005.78;5070880;28;20524;-74
2022/12/10 05:24:13;;;;;;;41.60;28.57;;;;;;;39.57;39.65;101018.41;5072067;28;20811;-73
2022/12/10 05:26:39;;;;;;;44.33;29.40;;;;;;;39.97;38.92;101015.69;5070933;28;20421;-74
2022/12/10 05:29:07;;;;;;;37.40;29.30;;;;;;;40.02;38.75;101019.06;5070629;28;20437;-73
2022/12/10 05:31:33;;;;;;;31.83;28.83;;;;;;;40.20;38.58;101014.47;5070777;28;20955;-74
2022/12/10 05:33:59;;;;;;;39.33;31.37;;;;;;;40.19;37.91;101015.59;5070742;28;20422;-74
2022/12/10 05:36:27;;;;;;;45.53;29.73;;;;;;;39.96;38.34;101017.63;5070834;28;20430;-74
2022/12/10 05:38:55;;;;;;;41.87;31.43;;;;;;;39.61;39.16;101022.16;5070556;28;20499;-73
2022/12/10 05:41:24;;;;;;;36.77;28.47;;;;;;;39.40;39.69;101021.84;5070897;28;20476;-73
2022/12/10 05:43:50;;;;;;;44.93;30.90;;;;;;;39.67;39.11;101025.53;5070568;28;20468;-73
2022/12/10 05:46:22;;;;;;;42.17;28.47;;;;;;;39.25;39.66;101019.56;5065824;28;20433;-73
2022/12/10 05:48:49;;;;;;;45.93;30.80;;;;;;;38.89;40.09;101023.16;5063577;28;20434;-73
2022/12/10 05:51:18;;;;;;;49.93;31.63;;;;;;;38.93;40.35;101039.63;5054488;28;20507;-73
2022/12/10 05:53:44;;;;;;;51.53;31.33;;;;;;;39.47;39.80;101040.41;5060233;28;20437;-73
2022/12/10 05:56:13;;;;;;;51.40;31.70;;;;;;;39.17;39.96;101034.69;5054073;28;20514;-72
2022/12/10 05:58:41;;;;;;;47.23;33.10;;;;;;;38.85;40.37;101043.84;5051168;28;20929;-73
2022/12/10 06:04:12;;;;;;;50.67;35.37;;;;;;;39.50;39.59;101043.31;5029291;28;20473;-72
2022/12/10 06:06:40;;;;;;;48.03;35.63;;;;;;;39.44;39.10;101052.69;5013398;28;20961;-73
2022/12/10 06:09:09;;;;;;;45.60;33.53;;;;;;;39.63;39.38;101051.69;5030373;28;20953;-72
2022/12/10 06:11:35;;;;;;;42.37;35.00;;;;;;;39.46;39.22;101055.09;5030083;28;20446;-72
2022/12/10 06:14:02;;;;;;;51.30;35.13;;;;;;;39.76;38.60;101057.00;5032030;28;20521;-72
2022/12/10 06:16:29;;;;;;;53.40;38.13;;;;;;;39.53;39.19;101060.88;5029803;28;20434;-73
2022/12/10 06:18:56;;;;;;;48.20;35.40;;;;;;;39.37;39.64;101059.69;5014051;28;20559;-71
2022/12/10 06:21:22;;;;;;;55.53;36.93;;;;;;;39.50;38.95;101069.66;5012541;28;20438;-71
2022/12/10 06:23:51;;;;;;;50.13;35.87;;;;;;;39.57;39.28;101072.72;5029107;28;22844;-71
2022/12/10 06:26:20;;;;;;;58.17;38.93;;;;;;;39.80;38.68;101078.91;5011681;28;20419;-71
2022/12/10 06:28:47;;;;;;;53.73;37.47;;;;;;;39.80;38.83;101083.56;5037471;28;20424;-72
2022/12/10 06:31:14;;;;;;;54.20;40.10;;;;;;;39.16;39.53;101083.81;5028000;28;20423;-71
2022/12/10 06:33:41;;;;;;;57.77;36.17;;;;;;;39.13;39.81;101096.06;5029847;28;20456;-74
2022/12/10 06:36:09;;;;;;;54.67;37.07;;;;;;;39.02;40.10;101099.34;5051414;28;20407;-73
2022/12/10 06:38:35;;;;;;;44.10;35.13;;;;;;;39.26;39.53;101090.91;5053040;28;20406;-73
2022/12/10 06:41:06;;;;;;;51.60;36.57;;;;;;;39.73;39.16;101095.69;5064321;28;20779;-72
2022/12/10 06:43:32;;;;;;;50.10;34.60;;;;;;;39.76;38.60;101103.19;5053599;28;21030;-72
2022/12/10 06:45:58;;;;;;;52.63;38.40;;;;;;;39.03;39.80;101109.06;5058323;28;20409;-73
2022/12/10 06:48:24;;;;;;;50.77;38.03;;;;;;;39.35;39.36;101097.19;5055580;28;20415;-72
2022/12/10 06:50:50;;;;;;;64.70;40.70;;;;;;;39.92;38.76;101103.56;5055907;28;20484;-74
2022/12/10 06:53:16;;;;;;;66.80;44.50;;;;;;;40.13;38.17;101100.28;5070248;28;20422;-73
2022/12/10 06:55:42;;;;;;;67.60;44.20;;;;;;;40.26;37.53;101102.88;5070321;28;20445;-72
2022/12/10 06:58:08;;;;;;;60.10;44.53;;;;;;;40.39;37.36;101106.59;5072518;28;20999;-71
2022/12/10 07:00:34;;;;;;;71.87;47.50;;;;;;;39.71;38.33;101097.09;5073119;28;20410;-71
2022/12/10 07:03:00;;;;;;;66.87;44.90;;;;;;;40.48;37.09;101101.19;5072700;28;20496;-72
2022/12/10 07:05:26;;;;;;;57.37;42.70;;;;;;;40.66;37.44;101105.53;5072179;28;20425;-72
2022/12/10 07:07:52;;;;;;;70.50;42.57;;;;;;;40.72;37.19;101104.25;5069568;28;20417;-72
2022/12/10 07:10:18;;;;;;;61.30;41.73;;;;;;;40.46;37.63;101109.66;5055962;28;20405;-71
2022/12/10 07:12:44;;;;;;;60.50;41.40;;;;;;;40.51;37.44;101103.25;5072793;28;20881;-72
2022/12/10 07:15:10;;;;;;;62.10;41.20;;;;;;;40.76;37.01;101121.53;5094342;28;20433;-72
2022/12/10 07:17:36;;;;;;;58.63;43.27;;;;;;;40.86;36.73;101125.03;5075762;28;20522;-72
2022/12/10 07:20:02;;;;;;;54.37;40.27;;;;;;;40.72;37.06;101123.28;5083820;28;20451;-72
2022/12/10 07:22:28;;;;;;;61.97;38.80;;;;;;;40.88;36.62;101134.47;5076154;28;20429;-72
2022/12/10 07:24:54;;;;;;;56.67;40.10;;;;;;;40.58;37.09;101132.69;5090332;28;20459;-71
2022/12/10 07:27:20;;;;;;;46.23;35.60;;;;;;;40.83;36.75;101133.88;5060414;28;20425;-73
2022/12/10 07:29:46;;;;;;;60.13;42.93;;;;;;;40.42;37.70;101141.28;5075914;28;20433;-72
2022/12/10 07:32:12;;;;;;;55.93;39.23;;;;;;;41.03;36.94;101150.38;5074993;28;20440;-72
2022/12/10 07:34:38;;;;;;;50.30;41.83;;;;;;;40.58;36.94;101144.41;5067485;28;20455;-72
2022/12/10 07:37:04;;;;;;;56.57;40.17;;;;;;;40.88;36.73;101153.53;5075910;28;20870;-72
2022/12/10 07:39:30;;;;;;;50.50;39.70;;;;;;;40.84;37.33;101159.94;5075880;28;20439;-72
2022/12/10 07:41:56;;;;;;;52.30;37.20;;;;;;;41.12;36.56;101157.72;5076037;28;20413;-72
2022/12/10 07:44:25;;;;;;;57.97;38.80;;;;;;;40.95;36.72;101167.50;5075736;28;20502;-72
2022/12/10 07:46:53;;;;;;;57.30;37.00;;;;;;;40.75;36.80;101163.44;5074157;28;20795;-72
2022/12/10 07:49:20;;;;;;;51.17;35.37;;;;;;;41.07;36.22;101169.59;5072449;28;20421;-73
2022/12/10 07:51:47;;;;;;;52.60;37.93;;;;;;;41.10;36.66;101168.13;5075440;28;20924;-75
2022/12/10 07:54:13;;;;;;;50.77;35.57;;;;;;;40.69;37.66;101174.78;5075470;28;20437;-72
2022/12/10 07:56:39;;;;;;;48.60;34.90;;;;;;;40.77;37.02;101177.53;5075602;28;20463;-72
2022/12/10 07:59:06;;;;;;;49.83;37.20;;;;;;;41.13;36.86;101176.47;5075367;28;20433;-73
2022/12/10 08:01:31;;;;;;;50.60;35.53;;;;;;;41.18;36.74;101173.56;5073632;28;20512;-74
2022/12/10 08:03:57;;;;;;;63.30;38.83;;;;;;;40.75;37.52;101171.59;5074692;28;20451;-73
2022/12/10 08:06:26;;;;;;;43.17;34.27;;;;;;;40.59;37.60;101170.47;5075213;28;20436;-73
2022/12/10 08:08:52;;;;;;;56.37;37.37;;;;;;;40.43;37.68;101172.81;5075344;28;20419;-73
2022/12/10 08:11:20;;;;;;;49.60;36.20;;;;;;;40.87;37.23;101167.44;5075453;28;20416;-73
2022/12/10 08:13:46;;;;;;;54.07;32.57;;;;;;;40.86;37.42;101163.94;5075110;28;20440;-74
2022/12/10 08:16:16;;;;;;;51.70;33.70;;;;;;;41.10;36.98;101163.47;5075400;28;20424;-72
2022/12/10 08:18:42;;;;;;;46.13;31.00;;;;;;;40.62;37.85;101158.94;5093230;28;20824;-72
2022/12/10 08:21:11;;;;;;;46.07;34.70;;;;;;;41.06;37.13;101154.34;5093650;28;20474;-72
2022/12/10 08:23:37;;;;;;;36.70;31.20;;;;;;;40.86;37.59;101154.97;5074732;28;20452;-72
2022/12/10 08:26:15;;;;;;;51.80;33.37;;;;;;;40.75;37.42;101158.00;5075480;28;20454;-72
2022/12/10 08:28:41;;;;;;;65.90;37.90;;;;;;;41.06;36.83;101157.06;5074757;28;20445;-73
2022/12/10 08:31:10;;;;;;;55.67;36.23;;;;;;;40.92;37.29;101156.44;5075004;28;20460;-74
2022/12/10 08:33:37;;;;;;;59.93;38.90;;;;;;;40.98;37.37;101155.97;5075045;28;20441;-73
2022/12/10 08:36:05;;;;;;;65.67;36.90;;;;;;;40.91;37.06;101163.81;5074609;28;20409;-72
2022/12/10 08:38:32;;;;;;;60.97;36.87;;;;;;;40.90;37.19;101169.53;5074965;28;20448;-73
2022/12/10 08:40:58;;;;;;;48.73;34.67;;;;;;;41.24;36.87;101164.09;5074610;28;20455;-72
2022/12/10 08:43:25;;;;;;;44.83;31.50;;;;;;;41.09;37.02;101170.06;5074797;28;20456;-72
2022/12/10 08:45:51;;;;;;;47.20;30.23;;;;;;;41.42;36.43;101162.19;5092996;28;20454;-72
2022/12/10 08:48:17;;;;;;;44.47;32.83;;;;;;;41.52;36.47;101158.31;5074756;28;20421;-72
2022/12/10 08:50:43;;;;;;;37.63;28.40;;;;;;;41.25;37.10;101162.19;5092911;28;20466;-72
2022/12/10 08:53:09;;;;;;;39.73;30.67;;;;;;;41.31;36.81;101160.88;5074798;28;20409;-72
2022/12/10 08:55:39;;;;;;;40.93;24.60;;;;;;;41.33;36.29;101173.09;5075011;28;20437;-72
2022/12/10 08:58:05;;;;;;;44.60;28.43;;;;;;;41.31;36.53;101175.31;5074563;28;21008;-72
2022/12/10 09:00:31;;;;;;;39.90;28.17;;;;;;;41.46;36.08;101165.88;5074043;28;20799;-74
2022/12/10 09:02:57;;;;;;;41.10;28.27;;;;;;;41.72;35.98;101171.25;5074427;28;20448;-73
2022/12/10 09:05:23;;;;;;;33.57;26.90;;;;;;;41.86;35.84;101169.13;5074584;28;20898;-74
2022/12/10 09:07:49;;;;;;;40.90;26.23;;;;;;;41.80;36.12;101164.97;5074788;28;20413;-73
2022/12/10 09:10:16;;;;;;;33.50;25.93;;;;;;;41.34;36.68;101168.44;5074501;28;20486;-72
2022/12/10 09:12:42;;;;;;;29.80;23.90;;;;;;;41.40;36.21;101158.19;5074348;28;20510;-73
2022/12/10 09:15:09;;;;;;;34.83;22.03;;;;;;;41.40;36.22;101161.72;5074424;28;20811;-73
2022/12/10 09:17:36;;;;;;;29.83;20.10;;;;;;;41.05;36.78;101160.91;5074380;28;20474;-73
2022/12/10 09:20:04;;;;;;;42.03;23.97;;;;;;;41.62;35.81;101152.53;5074363;28;20428;-73
2022/12/10 09:22:30;;;;;;;34.00;22.53;;;;;;;41.76;35.91;101147.72;5074308;28;20451;-73
2022/12/10 09:24:56;;;;;;;36.67;24.03;;;;;;;42.01;35.42;101147.94;5073044;28;20460;-72
2022/12/10 09:27:22;;;;;;;29.17;21.87;;;;;;;42.01;35.19;101147.94;5073549;28;20501;-71
2022/12/10 09:29:48;;;;;;;31.43;20.17;;;;;;;42.26;34.45;101138.03;5073362;28;20461;-71
2022/12/10 09:32:14;;;;;;;26.87;19.53;;;;;;;42.28;34.08;101141.22;5073603;28;20940;-71
2022/12/10 09:34:40;;;;;;;41.10;21.60;;;;;;;42.35;33.93;101136.84;5073625;28;20818;-71
2022/12/10 09:37:06;;;;;;;33.00;19.57;;;;;;;42.23;33.92;101134.03;5073413;28;20488;-71
2022/12/10 09:39:32;;;;;;;28.60;19.30;;;;;;;42.43;33.35;101139.88;5074143;28;20413;-72
2022/12/10 09:42:10;;;;;;;23.63;17.50;;;;;;;42.45;33.34;101134.88;5074614;28;20425;-71
2022/12/10 09:45:17;;;;;;;31.30;20.53;;;;;;;42.62;33.72;101135.56;5073867;28;20458;-72
2022/12/10 09:48:21;;;;;;;29.57;21.27;;;;;;;42.77;33.85;101125.97;5071980;28;20413;-71
2022/12/10 09:50:56;;;;;;;27.67;20.67;;;;;;;42.86;33.84;101129.44;5073985;28;20416;-73
2022/12/10 09:53:24;;;;;;;33.93;21.33;;;;;;;42.89;33.86;101123.31;5062082;28;20413;-73
2022/12/10 09:55:50;;;;;;;28.80;21.33;;;;;;;42.97;34.02;101131.75;5092150;28;20527;-72
2022/12/10 09:58:22;;;;;;;24.67;19.47;;;;;;;42.74;34.29;101125.88;5057392;28;20410;-71
2022/12/10 10:00:54;;;;;;;27.53;21.67;;;;;;;42.61;34.41;101125.81;5085388;28;20534;-71
2022/12/10 10:03:20;;;;;;;26.20;21.17;;;;;;;42.68;34.24;101128.00;5073923;28;20474;-73
2022/12/10 10:05:56;;;;;;;23.43;17.87;;;;;;;42.46;34.19;101126.34;5073317;28;20421;-72
2022/12/10 10:08:49;;;;;;;25.50;18.03;;;;;;;42.84;33.53;101123.50;5072407;28;20478;-71
2022/12/10 10:11:19;;;;;;;25.23;15.57;;;;;;;42.81;33.35;101124.19;5071756;28;20397;-72
2022/12/10 10:13:58;;;;;;;24.90;19.60;;;;;;;42.32;34.43;101121.16;5057346;28;20484;-72
2022/12/10 10:16:31;;;;;;;31.90;15.97;;;;;;;42.29;34.32;101119.06;5076010;28;20841;-71
2022/12/10 10:19:03;;;;;;;26.67;16.33;;;;;;;42.57;33.80;101111.22;5076121;28;20513;-72
2022/12/10 10:21:31;;;;;;;24.90;16.87;;;;;;;42.77;33.65;101115.06;5075752;28;20992;-72
2022/12/10 10:23:57;;;;;;;26.40;15.50;;;;;;;42.80;33.51;101100.75;5075653;28;21018;-72
2022/12/10 10:26:25;;;;;;;21.80;15.80;;;;;;;42.89;33.88;101103.41;5075941;28;20444;-72
2022/12/10 10:28:58;;;;;;;30.97;16.73;;;;;;;42.89;33.46;101098.75;5075566;28;21014;-73
2022/12/10 10:31:29;;;;;;;20.50;14.40;;;;;;;42.84;33.59;101092.69;5091867;28;20472;-72
2022/12/10 10:34:00;;;;;;;28.07;16.40;;;;;;;43.02;33.23;101087.91;5075274;28;20413;-72
2022/12/10 10:36:31;;;;;;;21.00;16.60;;;;;;;43.06;32.93;101084.16;5093943;28;20440;-74
2022/12/10 10:39:06;;;;;;;24.43;17.20;;;;;;;43.14;33.35;101085.19;5076125;28;20424;-72
2022/12/10 10:41:39;;;;;;;22.10;14.27;;;;;;;43.11;32.85;101085.88;5065815;28;20808;-72
2022/12/10 10:44:15;;;;;;;20.40;15.00;;;;;;;43.24;32.75;101078.53;5074177;28;20457;-72
2022/12/10 10:46:43;;;;;;;29.63;16.77;;;;;;;42.92;32.87;101081.72;5058780;28;20416;-72
2022/12/10 10:49:19;;;;;;;20.33;17.70;;;;;;;43.02;32.71;101060.59;5059502;28;21013;-73
2022/12/10 10:51:45;;;;;;;31.63;17.47;;;;;;;42.96;32.94;101073.63;5074933;28;20529;-72
2022/12/10 10:54:11;;;;;;;23.50;14.60;;;;;;;43.14;32.87;101060.63;5075435;28;20470;-72
2022/12/10 10:56:43;;;;;;;28.37;17.30;;;;;;;43.31;32.64;101054.19;5075105;28;20448;-73
2022/12/10 10:59:16;;;;;;;22.87;16.17;;;;;;;43.32;32.66;101051.09;5076078;28;20900;-77
2022/12/10 11:02:13;;;;;;;23.27;16.50;;;;;;;43.35;32.88;101038.72;5088187;28;20471;-77
2022/12/10 11:04:47;;;;;;;32.80;18.47;;;;;;;43.35;33.01;101041.44;5073457;28;20460;-73
2022/12/10 11:07:20;;;;;;;24.40;18.20;;;;;;;43.38;32.66;101041.59;5076574;28;20413;-73
2022/12/10 11:09:49;;;;;;;29.00;18.87;;;;;;;43.27;32.21;101034.94;5095369;28;20437;-73
2022/12/10 11:12:45;;;;;;;25.60;17.87;;;;;;;43.07;33.25;101027.63;5076058;28;20416;-75
2022/12/10 11:15:23;;;;;;;26.40;18.10;;;;;;;43.22;33.39;101017.97;5042997;28;20551;-73
2022/12/10 11:17:52;;;;;;;27.17;18.83;;;;;;;43.21;33.00;101010.94;5049750;28;20487;-72
2022/12/10 11:20:22;;;;;;;27.37;17.73;;;;;;;43.22;33.23;101012.53;5052823;28;20488;-72
2022/12/10 11:22:56;;;;;;;27.73;18.60;;;;;;;43.26;33.08;101002.53;5051345;28;20987;-73
2022/12/10 11:25:40;;;;;;;36.13;19.70;;;;;;;43.07;33.65;101003.06;5051483;28;20431;-72
2022/12/10 11:28:25;;;;;;;23.23;18.87;;;;;;;43.32;33.38;100991.03;5064847;28;20443;-73
2022/12/10 11:31:11;;;;;;;33.83;19.73;;;;;;;43.27;32.74;100980.31;5052699;28;20391;-73
2022/12/10 11:34:05;;;;;;;27.50;18.50;;;;;;;43.15;33.18;100972.13;5052862;28;20422;-73
2022/12/10 11:36:55;;;;;;;28.70;16.93;;;;;;;43.09;33.04;100970.75;5046532;28;20502;-73